createdAt,value
2022-11-29T00:00:39.580Z,998.99
2022-11-29T00:01:39.675Z,998.97
2022-11-29T00:02:39.922Z,999.01
2022-11-29T00:03:39.835Z,998.98
2022-11-29T00:04:39.944Z,999.01
2022-11-29T00:05:39.996Z,999.00
2022-11-29T00:06:40.069Z,998.95
2022-11-29T00:07:40.169Z,998.99
2022-11-29T00:08:40.235Z,998.98
2022-11-29T00:09:40.318Z,998.98
2022-11-29T00:10:40.378Z,999.00
2022-11-29T00:11:40.477Z,999.00
2022-11-29T00:12:40.540Z,999.00
2022-11-29T00:13:40.619Z,998.95
2022-11-29T00:14:40.726Z,998.97
2022-11-29T00:15:40.783Z,999.01
2022-11-29T00:16:40.983Z,999.01
2022-11-29T00:17:40.948Z,999.03
2022-11-29T00:18:41.017Z,999.00
2022-11-29T00:19:41.132Z,999.01
2022-11-29T00:20:41.200Z,999.06
2022-11-29T00:21:41.297Z,999.06
2022-11-29T00:22:41.363Z,999.06
2022-11-29T00:23:41.461Z,999.02
2022-11-29T00:24:41.791Z,999.04
2022-11-29T00:25:41.624Z,999.00
2022-11-29T00:26:41.697Z,999.02
2022-11-29T00:27:41.777Z,999.07
2022-11-29T00:28:41.858Z,999.06
2022-11-29T00:29:41.974Z,999.05
2022-11-29T00:30:42.075Z,999.05
2022-11-29T00:31:42.133Z,999.05
2022-11-29T00:32:42.201Z,999.10
2022-11-29T00:33:42.294Z,999.09
2022-11-29T00:34:42.766Z,999.09
2022-11-29T00:35:42.467Z,999.08
2022-11-29T00:36:42.539Z,999.11
2022-11-29T00:37:42.626Z,999.09
2022-11-29T00:38:42.711Z,999.10
2022-11-29T00:39:42.810Z,999.10
2022-11-29T00:40:42.879Z,999.07
2022-11-29T00:41:42.972Z,999.07
2022-11-29T00:42:43.042Z,999.09
2022-11-29T00:43:43.135Z,999.08
2022-11-29T00:44:43.459Z,999.10
2022-11-29T00:45:43.372Z,999.09
2022-11-29T00:46:43.374Z,999.08
2022-11-29T00:47:43.464Z,999.10
2022-11-29T00:48:43.539Z,999.12
2022-11-29T00:49:43.625Z,999.10
2022-11-29T00:50:43.691Z,999.10
2022-11-29T00:51:43.786Z,999.06
2022-11-29T00:52:43.861Z,999.09
2022-11-29T00:53:43.927Z,999.11
2022-11-29T00:54:44.260Z,999.10
2022-11-29T00:55:44.080Z,999.09
2022-11-29T00:56:44.139Z,999.12
2022-11-29T00:57:44.217Z,999.08
2022-11-29T00:58:44.324Z,999.10
2022-11-29T00:59:44.421Z,999.06
2022-11-29T01:00:44.484Z,999.07
2022-11-29T01:01:44.647Z,999.08
2022-11-29T01:02:44.709Z,999.06
2022-11-29T01:03:44.745Z,999.06
2022-11-29T01:04:45.170Z,999.04
2022-11-29T01:05:44.893Z,999.03
2022-11-29T01:06:44.967Z,999.05
2022-11-29T01:07:45.117Z,999.03
2022-11-29T01:08:45.133Z,999.03
2022-11-29T01:09:45.228Z,999.02
2022-11-29T01:10:45.292Z,999.01
2022-11-29T01:11:45.386Z,999.04
2022-11-29T01:12:45.468Z,999.02
2022-11-29T01:13:45.532Z,999.00
2022-11-29T01:14:45.946Z,999.00
2022-11-29T01:15:45.714Z,999.08
2022-11-29T01:16:45.844Z,999.05
2022-11-29T01:17:45.900Z,999.06
2022-11-29T01:18:45.994Z,999.03
2022-11-29T01:19:50.601Z,999.03
2022-11-29T01:20:46.154Z,999.03
2022-11-29T01:21:46.224Z,999.06
2022-11-29T01:22:46.317Z,999.05
2022-11-29T01:23:46.392Z,999.03
2022-11-29T01:24:46.730Z,999.03
2022-11-29T01:25:46.560Z,999.04
2022-11-29T01:26:46.654Z,999.05
2022-11-29T01:27:46.712Z,999.09
2022-11-29T01:28:46.802Z,999.08
2022-11-29T01:29:46.893Z,999.14
2022-11-29T01:30:47.004Z,999.07
2022-11-29T01:31:47.015Z,999.10
2022-11-29T01:32:47.110Z,999.19
2022-11-29T01:33:47.185Z,999.16
2022-11-29T01:34:47.370Z,999.17
2022-11-29T01:35:47.345Z,999.22
2022-11-29T01:36:47.443Z,999.25
2022-11-29T01:37:47.513Z,999.26
2022-11-29T01:38:47.607Z,999.28
2022-11-29T01:39:47.782Z,999.29
2022-11-29T01:40:47.762Z,999.26
2022-11-29T01:41:47.833Z,999.26
2022-11-29T01:42:47.926Z,999.25
2022-11-29T01:43:48.004Z,999.31
2022-11-29T01:44:48.112Z,999.28
2022-11-29T01:45:48.231Z,999.29
2022-11-29T01:46:48.295Z,999.27
2022-11-29T01:47:48.347Z,999.31
2022-11-29T01:48:48.440Z,999.29
2022-11-29T01:49:48.527Z,999.25
2022-11-29T01:50:48.601Z,999.30
2022-11-29T01:51:48.671Z,999.26
2022-11-29T01:52:48.764Z,999.32
2022-11-29T01:53:48.845Z,999.31
2022-11-29T01:54:48.971Z,999.31
2022-11-29T01:55:49.027Z,999.32
2022-11-29T01:56:49.079Z,999.36
2022-11-29T01:57:49.151Z,999.30
2022-11-29T01:58:49.247Z,999.39
2022-11-29T01:59:49.332Z,999.35
2022-11-29T02:00:49.395Z,999.37
2022-11-29T02:01:49.467Z,999.39
2022-11-29T02:02:49.598Z,999.35
2022-11-29T02:03:49.612Z,999.44
2022-11-29T02:04:49.721Z,999.38
2022-11-29T02:05:49.786Z,999.44
2022-11-29T02:06:49.880Z,999.42
2022-11-29T02:07:49.979Z,999.41
2022-11-29T02:08:50.030Z,999.40
2022-11-29T02:09:50.110Z,999.40
2022-11-29T02:10:50.173Z,999.44
2022-11-29T02:11:50.247Z,999.45
2022-11-29T02:12:50.341Z,999.44
2022-11-29T02:13:50.411Z,999.42
2022-11-29T02:14:50.516Z,999.43
2022-11-29T02:15:50.612Z,999.42
2022-11-29T02:16:56.289Z,999.42
2022-11-29T02:17:50.763Z,999.39
2022-11-29T02:18:50.842Z,999.45
2022-11-29T02:19:50.931Z,999.42
2022-11-29T02:20:50.993Z,999.42
2022-11-29T02:21:51.063Z,999.42
2022-11-29T02:22:51.144Z,999.43
2022-11-29T02:23:51.216Z,999.48
2022-11-29T02:24:51.335Z,999.45
2022-11-29T02:25:51.398Z,999.39
2022-11-29T02:26:51.492Z,999.43
2022-11-29T02:27:51.560Z,999.44
2022-11-29T02:28:51.654Z,999.46
2022-11-29T02:29:51.746Z,999.44
2022-11-29T02:30:51.844Z,999.44
2022-11-29T02:31:51.883Z,999.44
2022-11-29T02:32:51.979Z,999.40
2022-11-29T02:33:52.049Z,999.45
2022-11-29T02:34:52.158Z,999.44
2022-11-29T02:35:52.218Z,999.48
2022-11-29T02:36:52.311Z,999.46
2022-11-29T02:37:52.384Z,999.46
2022-11-29T02:38:52.477Z,999.47
2022-11-29T02:39:52.575Z,999.43
2022-11-29T02:40:52.647Z,999.48
2022-11-29T02:41:52.738Z,999.41
2022-11-29T02:42:56.754Z,999.46
2022-11-29T02:43:52.886Z,999.42
2022-11-29T02:44:52.982Z,999.45
2022-11-29T02:45:53.061Z,999.38
2022-11-29T02:46:53.120Z,999.41
2022-11-29T02:47:53.191Z,999.40
2022-11-29T02:48:53.290Z,999.41
2022-11-29T02:49:53.371Z,999.38
2022-11-29T02:50:53.444Z,999.44
2022-11-29T02:51:53.503Z,999.46
2022-11-29T02:52:53.597Z,999.43
2022-11-29T02:53:53.666Z,999.46
2022-11-29T02:54:53.780Z,999.42
2022-11-29T02:55:53.810Z,999.45
2022-11-29T02:56:53.903Z,999.43
2022-11-29T02:57:53.984Z,999.45
2022-11-29T02:58:54.064Z,999.49
2022-11-29T02:59:54.150Z,999.49
2022-11-29T03:00:54.228Z,999.50
2022-11-29T03:01:54.351Z,999.50
2022-11-29T03:02:54.436Z,999.52
2022-11-29T03:03:54.486Z,999.51
2022-11-29T03:04:54.591Z,999.45
2022-11-29T03:05:54.653Z,999.46
2022-11-29T03:06:54.736Z,999.47
2022-11-29T03:07:54.829Z,999.48
2022-11-29T03:08:54.887Z,999.51
2022-11-29T03:09:54.968Z,999.48
2022-11-29T03:10:55.035Z,999.49
2022-11-29T03:11:55.107Z,999.52
2022-11-29T03:12:55.185Z,999.50
2022-11-29T03:13:55.255Z,999.48
2022-11-29T03:14:55.364Z,999.51
2022-11-29T03:15:55.484Z,999.53
2022-11-29T03:16:55.524Z,999.54
2022-11-29T03:17:55.631Z,999.57
2022-11-29T03:18:55.687Z,999.56
2022-11-29T03:19:55.769Z,999.54
2022-11-29T03:20:55.840Z,999.57
2022-11-29T03:21:55.908Z,999.60
2022-11-29T03:22:55.999Z,999.64
2022-11-29T03:23:56.074Z,999.58
2022-11-29T03:24:56.182Z,999.65
2022-11-29T03:25:56.246Z,999.63
2022-11-29T03:26:56.341Z,999.67
2022-11-29T03:27:56.419Z,999.66
2022-11-29T03:28:56.517Z,999.70
2022-11-29T03:29:56.596Z,999.70
2022-11-29T03:30:56.679Z,999.74
2022-11-29T03:31:56.732Z,999.72
2022-11-29T03:32:56.825Z,999.74
2022-11-29T03:33:56.894Z,999.71
2022-11-29T03:34:57.711Z,999.74
2022-11-29T03:35:57.074Z,999.75
2022-11-29T03:36:57.166Z,999.76
2022-11-29T03:37:57.238Z,999.77
2022-11-29T03:38:57.331Z,999.80
2022-11-29T03:39:57.417Z,999.76
2022-11-29T03:40:57.482Z,999.80
2022-11-29T03:41:57.565Z,999.77
2022-11-29T03:42:57.633Z,999.77
2022-11-29T03:43:57.705Z,999.82
2022-11-29T03:44:57.813Z,999.76
2022-11-29T03:45:57.957Z,999.77
2022-11-29T03:46:57.976Z,999.81
2022-11-29T03:47:58.045Z,999.78
2022-11-29T03:48:58.139Z,999.82
2022-11-29T03:49:58.224Z,999.81
2022-11-29T03:50:58.310Z,999.86
2022-11-29T03:51:58.373Z,999.88
2022-11-29T03:52:58.466Z,999.87
2022-11-29T03:53:58.537Z,999.88
2022-11-29T03:54:58.644Z,999.86
2022-11-29T03:55:58.708Z,999.85
2022-11-29T03:56:58.790Z,999.88
2022-11-29T03:57:58.868Z,999.87
2022-11-29T03:58:58.962Z,999.89
2022-11-29T03:59:59.028Z,999.90
2022-11-29T04:00:59.107Z,999.91
2022-11-29T04:01:59.216Z,999.88
2022-11-29T04:02:59.301Z,999.91
2022-11-29T04:03:59.338Z,999.94
2022-11-29T04:04:59.433Z,999.97
2022-11-29T04:05:59.495Z,999.99
2022-11-29T04:06:59.579Z,1000.00
2022-11-29T04:07:59.693Z,999.99
2022-11-29T04:08:59.743Z,999.99
2022-11-29T04:09:59.832Z,1000.00
2022-11-29T04:10:59.901Z,1000.03
2022-11-29T04:11:59.960Z,1000.04
2022-11-29T04:13:00.061Z,1000.03
2022-11-29T04:14:00.117Z,1000.03
2022-11-29T04:15:00.233Z,1000.02
2022-11-29T04:16:00.298Z,1000.03
2022-11-29T04:17:00.350Z,1000.05
2022-11-29T04:18:00.440Z,1000.06
2022-11-29T04:19:00.491Z,1000.07
2022-11-29T04:20:00.603Z,1000.09
2022-11-29T04:21:00.685Z,1000.03
2022-11-29T04:22:00.769Z,1000.07
2022-11-29T04:23:00.861Z,1000.02
2022-11-29T04:24:00.943Z,1000.05
2022-11-29T04:25:01.023Z,1000.06
2022-11-29T04:26:01.102Z,1000.06
2022-11-29T04:27:01.220Z,1000.07
2022-11-29T04:28:01.291Z,1000.06
2022-11-29T04:29:01.399Z,1000.12
2022-11-29T04:30:01.504Z,1000.09
2022-11-29T04:31:01.638Z,1000.06
2022-11-29T04:32:01.632Z,1000.10
2022-11-29T04:33:01.741Z,1000.14
2022-11-29T04:34:01.801Z,1000.13
2022-11-29T04:35:01.921Z,1000.13
2022-11-29T04:36:01.995Z,1000.14
2022-11-29T04:37:02.081Z,1000.15
2022-11-29T04:38:02.159Z,1000.18
2022-11-29T04:39:02.257Z,1000.19
2022-11-29T04:40:02.381Z,1000.20
2022-11-29T04:41:02.444Z,1000.21
2022-11-29T04:42:02.502Z,1000.24
2022-11-29T04:43:02.611Z,1000.24
2022-11-29T04:44:02.688Z,1000.24
2022-11-29T04:45:02.804Z,1000.26
2022-11-29T04:46:02.944Z,1000.29
2022-11-29T04:47:02.950Z,1000.26
2022-11-29T04:48:03.044Z,1000.28
2022-11-29T04:49:03.113Z,1000.29
2022-11-29T04:50:03.213Z,1000.35
2022-11-29T04:51:03.279Z,1000.32
2022-11-29T04:52:03.356Z,1000.35
2022-11-29T04:53:03.447Z,1000.34
2022-11-29T04:54:03.529Z,1000.33
2022-11-29T04:55:03.650Z,1000.36
2022-11-29T04:56:03.690Z,1000.34
2022-11-29T04:57:03.794Z,1000.39
2022-11-29T04:58:03.877Z,1000.38
2022-11-29T04:59:03.945Z,1000.43
2022-11-29T05:00:04.037Z,1000.44
2022-11-29T05:01:04.141Z,1000.43
2022-11-29T05:02:04.248Z,1000.42
2022-11-29T05:03:04.358Z,1000.47
2022-11-29T05:04:04.362Z,1000.46
2022-11-29T05:05:04.486Z,1000.46
2022-11-29T05:06:04.541Z,1000.49
2022-11-29T05:07:04.635Z,1000.48
2022-11-29T05:08:04.717Z,1000.48
2022-11-29T05:09:04.823Z,1000.49
2022-11-29T05:10:04.919Z,1000.51
2022-11-29T05:11:04.990Z,1000.52
2022-11-29T05:12:05.071Z,1000.55
2022-11-29T05:13:05.180Z,1000.59
2022-11-29T05:14:05.258Z,1000.60
2022-11-29T05:15:05.391Z,1000.63
2022-11-29T05:16:05.473Z,1000.66
2022-11-29T05:17:05.521Z,1000.61
2022-11-29T05:18:05.585Z,1000.64
2022-11-29T05:19:05.676Z,1000.68
2022-11-29T05:20:05.770Z,1000.68
2022-11-29T05:21:05.826Z,1000.68
2022-11-29T05:22:05.906Z,1000.66
2022-11-29T05:23:06.013Z,1000.70
2022-11-29T05:24:06.093Z,1000.68
2022-11-29T05:25:06.213Z,1000.69
2022-11-29T05:26:06.289Z,1000.68
2022-11-29T05:27:06.367Z,1000.66
2022-11-29T05:28:09.996Z,1000.73
2022-11-29T05:29:06.534Z,1000.74
2022-11-29T05:30:06.668Z,1000.75
2022-11-29T05:31:06.720Z,1000.76
2022-11-29T05:32:06.813Z,1000.78
2022-11-29T05:33:06.895Z,1000.77
2022-11-29T05:34:06.965Z,1000.81
2022-11-29T05:35:07.060Z,1000.76
2022-11-29T05:36:07.134Z,1000.82
2022-11-29T05:37:07.218Z,1000.80
2022-11-29T05:38:07.288Z,1000.81
2022-11-29T05:39:07.369Z,1000.80
2022-11-29T05:40:07.454Z,1000.81
2022-11-29T05:41:07.497Z,1000.75
2022-11-29T05:42:07.596Z,1000.74
2022-11-29T05:43:07.682Z,1000.72
2022-11-29T05:44:07.762Z,1000.71
2022-11-29T05:45:07.845Z,1000.70
2022-11-29T05:46:07.988Z,1000.74
2022-11-29T05:47:07.987Z,1000.74
2022-11-29T05:48:08.093Z,1000.72
2022-11-29T05:49:08.158Z,1000.72
2022-11-29T05:50:08.280Z,1000.75
2022-11-29T05:51:08.320Z,1000.77
2022-11-29T05:52:08.427Z,1000.75
2022-11-29T05:53:08.490Z,1000.78
2022-11-29T05:54:08.580Z,1000.76
2022-11-29T05:55:08.677Z,1000.80
2022-11-29T05:56:08.761Z,1000.74
2022-11-29T05:57:08.841Z,1000.75
2022-11-29T05:58:08.933Z,1000.80
2022-11-29T05:59:09.008Z,1000.79
2022-11-29T06:00:09.137Z,1000.78
2022-11-29T06:01:09.179Z,1000.78
2022-11-29T06:02:09.329Z,1000.80
2022-11-29T06:03:09.413Z,1000.81
2022-11-29T06:04:14.550Z,1000.88
2022-11-29T06:05:09.574Z,1000.82
2022-11-29T06:06:09.640Z,1000.88
2022-11-29T06:07:09.718Z,1000.90
2022-11-29T06:08:09.823Z,1000.89
2022-11-29T06:09:09.900Z,1000.91
2022-11-29T06:10:10.019Z,1000.90
2022-11-29T06:11:10.047Z,1000.94
2022-11-29T06:12:10.158Z,1000.93
2022-11-29T06:13:10.221Z,1000.94
2022-11-29T06:14:10.329Z,1000.94
2022-11-29T06:15:10.422Z,1000.94
2022-11-29T06:16:10.539Z,1000.92
2022-11-29T06:17:10.556Z,1000.99
2022-11-29T06:18:10.662Z,1000.98
2022-11-29T06:19:10.732Z,1001.01
2022-11-29T06:20:10.851Z,1001.04
2022-11-29T06:21:10.893Z,1001.07
2022-11-29T06:22:10.962Z,1001.10
2022-11-29T06:23:11.042Z,1001.13
2022-11-29T06:24:11.140Z,1001.13
2022-11-29T06:25:11.539Z,1001.14
2022-11-29T06:26:11.288Z,1001.17
2022-11-29T06:27:11.405Z,1001.21
2022-11-29T06:28:11.446Z,1001.21
2022-11-29T06:29:11.528Z,1001.17
2022-11-29T06:30:11.636Z,1001.22
2022-11-29T06:31:11.728Z,1001.23
2022-11-29T06:32:11.768Z,1001.21
2022-11-29T06:33:11.827Z,1001.21
2022-11-29T06:34:11.931Z,1001.23
2022-11-29T06:35:12.023Z,1001.24
2022-11-29T06:36:12.128Z,1001.26
2022-11-29T06:37:12.171Z,1001.23
2022-11-29T06:38:12.276Z,1001.28
2022-11-29T06:39:12.354Z,1001.24
2022-11-29T06:40:12.472Z,1001.22
2022-11-29T06:41:12.624Z,1001.23
2022-11-29T06:42:12.604Z,1001.24
2022-11-29T06:43:12.676Z,1001.26
2022-11-29T06:44:12.785Z,1001.28
2022-11-29T06:45:12.877Z,1001.30
2022-11-29T06:46:13.028Z,1001.28
2022-11-29T06:47:13.030Z,1001.32
2022-11-29T06:48:13.099Z,1001.34
2022-11-29T06:49:13.180Z,1001.34
2022-11-29T06:50:13.316Z,1001.36
2022-11-29T06:51:13.358Z,1001.37
2022-11-29T06:52:13.451Z,1001.38
2022-11-29T06:53:13.533Z,1001.36
2022-11-29T06:54:13.629Z,1001.41
2022-11-29T06:55:13.709Z,1001.40
2022-11-29T06:56:13.751Z,1001.43
2022-11-29T06:57:13.824Z,1001.40
2022-11-29T06:58:13.896Z,1001.45
2022-11-29T06:59:13.971Z,1001.45
2022-11-29T07:00:14.068Z,1001.44
2022-11-29T07:01:14.157Z,1001.49
2022-11-29T07:02:14.249Z,1001.48
2022-11-29T07:03:14.255Z,1001.48
2022-11-29T07:04:14.325Z,1001.49
2022-11-29T07:05:14.406Z,1001.51
2022-11-29T07:06:14.478Z,1001.52
2022-11-29T07:07:14.556Z,1001.54
2022-11-29T07:08:14.638Z,1001.52
2022-11-29T07:09:14.680Z,1001.56
2022-11-29T07:10:15.162Z,1001.55
2022-11-29T07:11:14.851Z,1001.59
2022-11-29T07:12:14.930Z,1001.58
2022-11-29T07:13:15.004Z,1001.58
2022-11-29T07:14:15.073Z,1001.62
2022-11-29T07:15:15.176Z,1001.62
2022-11-29T07:16:15.266Z,1001.65
2022-11-29T07:17:15.324Z,1001.65
2022-11-29T07:18:15.400Z,1001.61
2022-11-29T07:19:15.456Z,1001.63
2022-11-29T07:20:15.552Z,1001.65
2022-11-29T07:21:15.594Z,1001.65
2022-11-29T07:22:15.668Z,1001.66
2022-11-29T07:23:15.727Z,1001.66
2022-11-29T07:24:15.795Z,1001.71
2022-11-29T07:25:15.884Z,1001.72
2022-11-29T07:26:15.963Z,1001.68
2022-11-29T07:27:16.038Z,1001.72
2022-11-29T07:28:16.141Z,1001.71
2022-11-29T07:29:16.217Z,1001.72
2022-11-29T07:30:16.347Z,1001.71
2022-11-29T07:31:16.459Z,1001.72
2022-11-29T07:32:16.470Z,1001.77
2022-11-29T07:33:16.546Z,1001.76
2022-11-29T07:34:16.655Z,1001.76
2022-11-29T07:35:16.751Z,1001.77
2022-11-29T07:36:16.822Z,1001.75
2022-11-29T07:37:16.902Z,1001.76
2022-11-29T07:38:16.998Z,1001.79
2022-11-29T07:39:17.076Z,1001.75
2022-11-29T07:40:17.208Z,1001.79
2022-11-29T07:41:17.277Z,1001.79
2022-11-29T07:42:17.330Z,1001.80
2022-11-29T07:43:17.409Z,1001.82
2022-11-29T07:44:17.508Z,1001.83
2022-11-29T07:45:17.599Z,1001.84
2022-11-29T07:46:17.774Z,1001.85
2022-11-29T07:47:17.769Z,1001.88
2022-11-29T07:48:17.879Z,1001.91
2022-11-29T07:49:17.979Z,1001.91
2022-11-29T07:50:18.071Z,1001.92
2022-11-29T07:51:18.110Z,1001.95
2022-11-29T07:52:18.213Z,1001.94
2022-11-29T07:53:18.292Z,1001.98
2022-11-29T07:54:18.382Z,1001.92
2022-11-29T07:55:19.245Z,1001.94
2022-11-29T07:56:18.551Z,1001.91
2022-11-29T07:57:18.631Z,1001.94
2022-11-29T07:58:18.759Z,1001.94
2022-11-29T07:59:18.793Z,1001.93
2022-11-29T08:00:18.924Z,1002.01
2022-11-29T08:01:18.986Z,1002.01
2022-11-29T08:02:19.075Z,1002.05
2022-11-29T08:03:19.156Z,1002.06
2022-11-29T08:04:19.236Z,1002.09
2022-11-29T08:05:19.562Z,1002.05
2022-11-29T08:06:19.396Z,1002.08
2022-11-29T08:07:19.523Z,1002.09
2022-11-29T08:08:19.565Z,1002.10
2022-11-29T08:09:19.647Z,1002.11
2022-11-29T08:10:19.766Z,1002.12
2022-11-29T08:11:19.807Z,1002.16
2022-11-29T08:12:19.913Z,1002.15
2022-11-29T08:13:19.996Z,1002.15
2022-11-29T08:14:20.089Z,1002.17
2022-11-29T08:15:20.179Z,1002.16
2022-11-29T08:16:20.288Z,1002.16
2022-11-29T08:17:20.318Z,1002.17
2022-11-29T08:18:20.402Z,1002.19
2022-11-29T08:19:20.467Z,1002.19
2022-11-29T08:20:20.549Z,1002.20
2022-11-29T08:21:20.610Z,1002.26
2022-11-29T08:22:20.676Z,1002.19
2022-11-29T08:23:20.751Z,1002.25
2022-11-29T08:24:20.830Z,1002.31
2022-11-29T08:25:20.921Z,1002.28
2022-11-29T08:26:21.008Z,1002.28
2022-11-29T08:27:21.080Z,1002.33
2022-11-29T08:28:21.177Z,1002.30
2022-11-29T08:29:21.252Z,1002.29
2022-11-29T08:30:21.372Z,1002.30
2022-11-29T08:31:21.445Z,1002.30
2022-11-29T08:32:21.507Z,1002.33
2022-11-29T08:33:21.557Z,1002.34
2022-11-29T08:34:21.667Z,1002.36
2022-11-29T08:35:21.862Z,1002.37
2022-11-29T08:36:21.819Z,1002.43
2022-11-29T08:37:21.895Z,1002.38
2022-11-29T08:38:22.008Z,1002.41
2022-11-29T08:39:22.086Z,1002.43
2022-11-29T08:40:22.167Z,1002.42
2022-11-29T08:41:22.208Z,1002.42
2022-11-29T08:42:22.298Z,1002.43
2022-11-29T08:43:22.354Z,1002.44
2022-11-29T08:44:22.439Z,1002.46
2022-11-29T08:45:22.591Z,1002.45
2022-11-29T08:46:22.777Z,1002.44
2022-11-29T08:47:22.668Z,1002.45
2022-11-29T08:48:22.799Z,1002.41
2022-11-29T08:49:22.839Z,1002.49
2022-11-29T08:50:23.041Z,1002.44
2022-11-29T08:51:23.012Z,1002.50
2022-11-29T08:52:23.094Z,1002.52
2022-11-29T08:53:23.170Z,1002.48
2022-11-29T08:54:23.299Z,1002.49
2022-11-29T08:55:23.364Z,1002.53
2022-11-29T08:57:10.217Z,1002.56
2022-11-29T08:57:40.530Z,1002.58
2022-11-29T08:58:23.587Z,1002.56
2022-11-29T08:59:23.665Z,1002.59
2022-11-29T09:00:23.819Z,1002.54
2022-11-29T09:01:23.919Z,1002.60
2022-11-29T09:02:23.936Z,1002.60
2022-11-29T09:03:23.961Z,1002.61
2022-11-29T09:04:24.194Z,1002.66
2022-11-29T09:05:24.200Z,1002.65
2022-11-29T09:06:24.244Z,1002.67
2022-11-29T09:07:24.392Z,1002.72
2022-11-29T09:08:24.415Z,1002.68
2022-11-29T09:09:24.509Z,1002.70
2022-11-29T09:10:24.576Z,1002.72
2022-11-29T09:11:24.616Z,1002.65
2022-11-29T09:12:24.687Z,1002.68
2022-11-29T09:13:24.754Z,1002.67
2022-11-29T09:14:24.851Z,1002.71
2022-11-29T09:15:24.944Z,1002.74
2022-11-29T09:16:25.074Z,1002.73
2022-11-29T09:17:25.071Z,1002.77
2022-11-29T09:18:25.197Z,1002.80
2022-11-29T09:19:25.242Z,1002.77
2022-11-29T09:20:25.345Z,1002.79
2022-11-29T09:21:25.381Z,1002.80
2022-11-29T09:22:25.467Z,1002.79
2022-11-29T09:23:25.541Z,1002.83
2022-11-29T09:24:25.644Z,1002.81
2022-11-29T09:25:25.748Z,1002.79
2022-11-29T09:26:25.814Z,1002.85
2022-11-29T09:27:25.888Z,1002.86
2022-11-29T09:28:25.956Z,1002.86
2022-11-29T09:29:26.034Z,1002.90
2022-11-29T09:30:26.154Z,1002.88
2022-11-29T09:31:26.233Z,1002.93
2022-11-29T09:32:26.300Z,1002.92
2022-11-29T09:33:26.382Z,1002.95
2022-11-29T09:34:26.450Z,1002.94
2022-11-29T09:35:26.539Z,1002.99
2022-11-29T09:36:28.955Z,1003.00
2022-11-29T09:37:26.694Z,1002.97
2022-11-29T09:38:26.788Z,1002.98
2022-11-29T09:39:26.860Z,1003.02
2022-11-29T09:40:27.011Z,1002.99
2022-11-29T09:41:27.009Z,1003.02
2022-11-29T09:42:27.120Z,1002.98
2022-11-29T09:43:27.194Z,1003.03
2022-11-29T09:44:27.264Z,1003.06
2022-11-29T09:45:27.350Z,1003.08
2022-11-29T09:46:27.414Z,1003.10
2022-11-29T09:47:27.529Z,1003.10
2022-11-29T09:48:27.591Z,1003.09
2022-11-29T09:49:27.703Z,1003.10
2022-11-29T09:50:27.799Z,1003.11
2022-11-29T09:51:27.872Z,1003.13
2022-11-29T09:52:27.946Z,1003.15
2022-11-29T09:53:28.055Z,1003.17
2022-11-29T09:54:28.136Z,1003.15
2022-11-29T09:55:28.223Z,1003.17
2022-11-29T09:56:28.268Z,1003.17
2022-11-29T09:57:28.335Z,1003.23
2022-11-29T09:58:28.411Z,1003.23
2022-11-29T09:59:28.486Z,1003.22
2022-11-29T10:00:28.578Z,1003.20
2022-11-29T10:01:28.740Z,1003.22
2022-11-29T10:02:28.920Z,1003.20
2022-11-29T10:03:28.830Z,1003.23
2022-11-29T10:04:28.914Z,1003.21
2022-11-29T10:05:28.998Z,1003.26
2022-11-29T10:06:29.041Z,1003.19
2022-11-29T10:07:29.193Z,1003.20
2022-11-29T10:08:29.173Z,1003.19
2022-11-29T10:09:33.548Z,1003.20
2022-11-29T10:10:29.339Z,1003.24
2022-11-29T10:11:29.423Z,1003.24
2022-11-29T10:12:29.495Z,1003.24
2022-11-29T10:13:29.564Z,1003.25
2022-11-29T10:14:29.646Z,1003.26
2022-11-29T10:15:29.733Z,1003.27
2022-11-29T10:16:29.852Z,1003.28
2022-11-29T10:17:29.855Z,1003.27
2022-11-29T10:18:29.930Z,1003.32
2022-11-29T10:19:29.999Z,1003.29
2022-11-29T10:20:30.100Z,1003.32
2022-11-29T10:21:30.153Z,1003.30
2022-11-29T10:22:30.294Z,1003.27
2022-11-29T10:23:30.307Z,1003.33
2022-11-29T10:24:30.377Z,1003.31
2022-11-29T10:25:30.461Z,1003.30
2022-11-29T10:26:34.942Z,1003.30
2022-11-29T10:27:30.596Z,1003.31
2022-11-29T10:28:30.681Z,1003.34
2022-11-29T10:29:30.755Z,1003.33
2022-11-29T10:30:30.895Z,1003.35
2022-11-29T10:31:30.887Z,1003.35
2022-11-29T10:32:30.974Z,1003.30
2022-11-29T10:33:31.060Z,1003.33
2022-11-29T10:34:31.132Z,1003.30
2022-11-29T10:35:31.254Z,1003.33
2022-11-29T10:36:31.296Z,1003.31
2022-11-29T10:37:31.380Z,1003.30
2022-11-29T10:38:32.042Z,1003.29
2022-11-29T10:39:31.530Z,1003.27
2022-11-29T10:40:31.614Z,1003.30
2022-11-29T10:41:31.658Z,1003.30
2022-11-29T10:42:31.732Z,1003.30
2022-11-29T10:43:31.808Z,1003.29
2022-11-29T10:44:31.888Z,1003.26
2022-11-29T10:45:31.982Z,1003.29
2022-11-29T10:46:32.141Z,1003.24
2022-11-29T10:47:32.135Z,1003.25
2022-11-29T10:48:32.209Z,1003.29
2022-11-29T10:49:32.289Z,1003.25
2022-11-29T10:50:32.379Z,1003.27
2022-11-29T10:51:32.436Z,1003.26
2022-11-29T10:52:32.520Z,1003.23
2022-11-29T10:53:32.599Z,1003.26
2022-11-29T10:54:32.680Z,1003.25
2022-11-29T10:55:32.772Z,1003.27
2022-11-29T10:56:32.839Z,1003.25
2022-11-29T10:57:32.918Z,1003.25
2022-11-29T10:58:33.000Z,1003.26
2022-11-29T10:59:33.091Z,1003.26
2022-11-29T11:00:33.189Z,1003.30
2022-11-29T11:01:33.329Z,1003.27
2022-11-29T11:02:33.310Z,1003.23
2022-11-29T11:03:33.381Z,1003.26
2022-11-29T11:04:33.467Z,1003.27
2022-11-29T11:05:33.599Z,1003.27
2022-11-29T11:06:33.643Z,1003.25
2022-11-29T11:07:33.742Z,1003.26
2022-11-29T11:08:33.795Z,1003.29
2022-11-29T11:09:33.871Z,1003.30
2022-11-29T11:10:33.959Z,1003.27
2022-11-29T11:11:34.004Z,1003.25
2022-11-29T11:12:34.072Z,1003.26
2022-11-29T11:13:34.145Z,1003.26
2022-11-29T11:14:34.241Z,1003.28
2022-11-29T11:15:34.322Z,1003.23
2022-11-29T11:16:37.554Z,1003.21
2022-11-29T11:17:34.468Z,1003.24
2022-11-29T11:18:34.540Z,1003.28
2022-11-29T11:19:34.616Z,1003.24
2022-11-29T11:20:34.701Z,1003.25
2022-11-29T11:21:34.742Z,1003.26
2022-11-29T11:22:34.815Z,1003.25
2022-11-29T11:23:39.869Z,1003.28
2022-11-29T11:24:34.978Z,1003.30
2022-11-29T11:25:35.077Z,1003.25
2022-11-29T11:26:35.157Z,1003.28
2022-11-29T11:27:35.230Z,1003.24
2022-11-29T11:28:35.350Z,1003.25
2022-11-29T11:29:35.443Z,1003.27
2022-11-29T11:30:35.577Z,1003.26
2022-11-29T11:31:35.595Z,1003.24
2022-11-29T11:32:35.663Z,1003.26
2022-11-29T11:33:35.731Z,1003.24
2022-11-29T11:34:35.804Z,1003.27
2022-11-29T11:35:35.889Z,1003.24
2022-11-29T11:36:35.958Z,1003.31
2022-11-29T11:37:36.031Z,1003.30
2022-11-29T11:38:36.140Z,1003.29
2022-11-29T11:39:36.215Z,1003.25
2022-11-29T11:40:36.357Z,1003.32
2022-11-29T11:41:36.371Z,1003.31
2022-11-29T11:42:36.481Z,1003.34
2022-11-29T11:43:36.560Z,1003.33
2022-11-29T11:44:51.987Z,1003.31
2022-11-29T11:45:36.749Z,1003.35
2022-11-29T11:46:36.857Z,1003.30
2022-11-29T11:47:36.875Z,1003.35
2022-11-29T11:48:36.961Z,1003.31
2022-11-29T11:49:37.034Z,1003.37
2022-11-29T11:50:37.120Z,1003.35
2022-11-29T11:51:37.166Z,1003.31
2022-11-29T11:52:40.730Z,1003.29
2022-11-29T11:53:37.304Z,1003.31
2022-11-29T11:54:37.375Z,1003.33
2022-11-29T11:55:37.464Z,1003.32
2022-11-29T11:56:37.541Z,1003.32
2022-11-29T11:57:37.619Z,1003.32
2022-11-29T11:58:37.709Z,1003.34
2022-11-29T11:59:37.782Z,1003.33
2022-11-29T12:01:02.309Z,1003.34
2022-11-29T12:01:37.946Z,1003.30
2022-11-29T12:02:38.116Z,1003.32
2022-11-29T12:03:38.155Z,1003.35
2022-11-29T12:04:38.193Z,1003.37
2022-11-29T12:05:40.598Z,1003.34
2022-11-29T12:06:38.361Z,1003.34
2022-11-29T12:08:06.649Z,1003.37
2022-11-29T12:08:38.557Z,1003.40
2022-11-29T12:09:38.567Z,1003.43
2022-11-29T12:10:38.662Z,1003.44
2022-11-29T12:11:38.698Z,1003.42
2022-11-29T12:12:38.782Z,1003.38
2022-11-29T12:13:38.859Z,1003.40
2022-11-29T12:14:38.940Z,1003.41